sensor_id;sensor_type;location;lat;lon;timestamp;temperature;humidity
18741;DHT22;9499;52.472;13.448;2023-07-29T00:01:33;19.10;99.90
18741;DHT22;9499;52.472;13.448;2023-07-29T00:04:02;19.10;99.90
18741;DHT22;9499;52.472;13.448;2023-07-29T00:06:31;19.10;99.90
18741;DHT22;9499;52.472;13.448;2023-07-29T00:08:59;19.10;99.90
18741;DHT22;9499;52.472;13.448;2023-07-29T00:11:39;19.00;99.90
18741;DHT22;9499;52.472;13.448;2023-07-29T00:14:07;19.00;99.90
18741;DHT22;9499;52.472;13.448;2023-07-29T00:16:35;19.00;99.90
18741;DHT22;9499;52.472;13.448;2023-07-29T00:19:03;19.00;99.90
18741;DHT22;9499;52.472;13.448;2023-07-29T00:21:30;19.00;99.90
18741;DHT22;9499;52.472;13.448;2023-07-29T00:24:04;18.90;99.90
18741;DHT22;9499;52.472;13.448;2023-07-29T00:26:33;18.90;99.90
18741;DHT22;9499;52.472;13.448;2023-07-29T00:29:03;18.90;99.90
18741;DHT22;9499;52.472;13.448;2023-07-29T00:31:33;18.90;99.90
18741;DHT22;9499;52.472;13.448;2023-07-29T00:34:02;18.80;99.90
18741;DHT22;9499;52.472;13.448;2023-07-29T00:36:31;18.70;99.90
18741;DHT22;9499;52.472;13.448;2023-07-29T00:38:59;18.70;99.90
18741;DHT22;9499;52.472;13.448;2023-07-29T00:41:26;18.70;99.90
18741;DHT22;9499;52.472;13.448;2023-07-29T00:43:54;18.70;99.90
18741;DHT22;9499;52.472;13.448;2023-07-29T00:46:21;18.70;99.90
18741;DHT22;9499;52.472;13.448;2023-07-29T00:48:48;18.80;99.90
18741;DHT22;9499;52.472;13.448;2023-07-29T00:51:17;18.70;99.90
18741;DHT22;9499;52.472;13.448;2023-07-29T00:53:44;18.70;99.90
18741;DHT22;9499;52.472;13.448;2023-07-29T00:56:13;18.60;99.90
18741;DHT22;9499;52.472;13.448;2023-07-29T00:58:42;18.60;99.90
18741;DHT22;9499;52.472;13.448;2023-07-29T01:01:11;18.60;99.90
18741;DHT22;9499;52.472;13.448;2023-07-29T01:03:44;18.60;99.90
18741;DHT22;9499;52.472;13.448;2023-07-29T01:06:18;18.60;99.90
18741;DHT22;9499;52.472;13.448;2023-07-29T01:08:55;18.50;99.90
18741;DHT22;9499;52.472;13.448;2023-07-29T01:11:35;18.50;99.90
18741;DHT22;9499;52.472;13.448;2023-07-29T01:14:10;18.50;99.90
18741;DHT22;9499;52.472;13.448;2023-07-29T01:16:48;18.50;99.90
18741;DHT22;9499;52.472;13.448;2023-07-29T01:19:26;18.40;99.90
18741;DHT22;9499;52.472;13.448;2023-07-29T01:21:59;18.40;99.90
18741;DHT22;9499;52.472;13.448;2023-07-29T01:24:31;18.40;99.90
18741;DHT22;9499;52.472;13.448;2023-07-29T01:26:59;18.30;99.90
18741;DHT22;9499;52.472;13.448;2023-07-29T01:29:29;18.40;99.90
18741;DHT22;9499;52.472;13.448;2023-07-29T01:32:02;18.40;99.90
18741;DHT22;9499;52.472;13.448;2023-07-29T01:34:37;18.40;99.90
18741;DHT22;9499;52.472;13.448;2023-07-29T01:37:16;18.30;99.90
18741;DHT22;9499;52.472;13.448;2023-07-29T01:39:50;18.30;99.90
18741;DHT22;9499;52.472;13.448;2023-07-29T01:42:19;18.30;99.90
18741;DHT22;9499;52.472;13.448;2023-07-29T01:44:48;18.30;99.90
18741;DHT22;9499;52.472;13.448;2023-07-29T01:47:15;18.20;99.90
18741;DHT22;9499;52.472;13.448;2023-07-29T01:49:44;18.20;99.90
18741;DHT22;9499;52.472;13.448;2023-07-29T01:52:12;18.20;99.90
18741;DHT22;9499;52.472;13.448;2023-07-29T01:54:39;18.20;99.90
18741;DHT22;9499;52.472;13.448;2023-07-29T01:57:08;18.20;99.90
18741;DHT22;9499;52.472;13.448;2023-07-29T01:59:34;18.20;99.90
18741;DHT22;9499;52.472;13.448;2023-07-29T02:02:01;18.20;99.90
18741;DHT22;9499;52.472;13.448;2023-07-29T02:04:28;18.20;99.90
18741;DHT22;9499;52.472;13.448;2023-07-29T02:06:57;18.10;99.90
18741;DHT22;9499;52.472;13.448;2023-07-29T02:09:31;18.10;99.90
18741;DHT22;9499;52.472;13.448;2023-07-29T02:12:01;18.10;99.90
18741;DHT22;9499;52.472;13.448;2023-07-29T02:14:31;18.10;99.90
18741;DHT22;9499;52.472;13.448;2023-07-29T02:16:58;18.10;99.90
18741;DHT22;9499;52.472;13.448;2023-07-29T02:19:26;18.10;99.90
18741;DHT22;9499;52.472;13.448;2023-07-29T02:21:57;18.00;99.90
18741;DHT22;9499;52.472;13.448;2023-07-29T02:24:30;18.00;99.90
18741;DHT22;9499;52.472;13.448;2023-07-29T02:26:57;18.00;99.90
18741;DHT22;9499;52.472;13.448;2023-07-29T02:29:27;17.90;99.90
18741;DHT22;9499;52.472;13.448;2023-07-29T02:31:57;17.90;99.90
18741;DHT22;9499;52.472;13.448;2023-07-29T02:34:24;17.90;99.90
18741;DHT22;9499;52.472;13.448;2023-07-29T02:36:52;17.90;99.90
18741;DHT22;9499;52.472;13.448;2023-07-29T02:39:19;17.90;99.90
18741;DHT22;9499;52.472;13.448;2023-07-29T02:41:48;17.90;99.90
18741;DHT22;9499;52.472;13.448;2023-07-29T02:44:15;17.90;99.90
18741;DHT22;9499;52.472;13.448;2023-07-29T02:46:43;17.80;99.90
18741;DHT22;9499;52.472;13.448;2023-07-29T02:49:12;17.80;99.90
18741;DHT22;9499;52.472;13.448;2023-07-29T02:51:39;17.80;99.90
18741;DHT22;9499;52.472;13.448;2023-07-29T02:54:05;17.80;99.90
18741;DHT22;9499;52.472;13.448;2023-07-29T02:56:32;17.80;99.90
18741;DHT22;9499;52.472;13.448;2023-07-29T02:58:59;17.80;99.90
18741;DHT22;9499;52.472;13.448;2023-07-29T03:01:27;17.80;99.90
18741;DHT22;9499;52.472;13.448;2023-07-29T03:03:54;17.80;99.90
18741;DHT22;9499;52.472;13.448;2023-07-29T03:06:24;17.80;99.90
18741;DHT22;9499;52.472;13.448;2023-07-29T03:08:53;17.80;99.90
18741;DHT22;9499;52.472;13.448;2023-07-29T03:11:28;17.80;99.90
18741;DHT22;9499;52.472;13.448;2023-07-29T03:13:59;17.70;99.90
18741;DHT22;9499;52.472;13.448;2023-07-29T03:16:31;17.70;99.90
18741;DHT22;9499;52.472;13.448;2023-07-29T03:19:01;17.70;99.90
18741;DHT22;9499;52.472;13.448;2023-07-29T03:21:31;17.70;99.90
18741;DHT22;9499;52.472;13.448;2023-07-29T03:23:58;17.70;99.90
18741;DHT22;9499;52.472;13.448;2023-07-29T03:26:29;17.70;99.90
18741;DHT22;9499;52.472;13.448;2023-07-29T03:28:57;17.70;99.90
18741;DHT22;9499;52.472;13.448;2023-07-29T03:31:25;17.70;99.90
18741;DHT22;9499;52.472;13.448;2023-07-29T03:33:54;17.70;99.90
18741;DHT22;9499;52.472;13.448;2023-07-29T03:36:21;17.70;99.90
18741;DHT22;9499;52.472;13.448;2023-07-29T03:38:55;17.70;99.90
18741;DHT22;9499;52.472;13.448;2023-07-29T03:41:23;17.70;99.90
18741;DHT22;9499;52.472;13.448;2023-07-29T03:43:50;17.70;99.90
18741;DHT22;9499;52.472;13.448;2023-07-29T03:46:18;17.60;99.90
18741;DHT22;9499;52.472;13.448;2023-07-29T03:48:47;17.60;99.90
18741;DHT22;9499;52.472;13.448;2023-07-29T03:51:19;17.60;99.90
18741;DHT22;9499;52.472;13.448;2023-07-29T03:53:49;17.60;99.90
18741;DHT22;9499;52.472;13.448;2023-07-29T03:56:23;17.60;99.90
18741;DHT22;9499;52.472;13.448;2023-07-29T03:59:03;17.60;99.90
18741;DHT22;9499;52.472;13.448;2023-07-29T04:01:34;17.60;99.90
18741;DHT22;9499;52.472;13.448;2023-07-29T04:04:01;17.60;99.90
18741;DHT22;9499;52.472;13.448;2023-07-29T04:06:27;17.60;99.90
18741;DHT22;9499;52.472;13.448;2023-07-29T04:08:55;17.60;99.90
18741;DHT22;9499;52.472;13.448;2023-07-29T04:11:25;17.60;99.90
18741;DHT22;9499;52.472;13.448;2023-07-29T04:13:54;17.60;99.90
18741;DHT22;9499;52.472;13.448;2023-07-29T04:16:21;17.70;99.90
18741;DHT22;9499;52.472;13.448;2023-07-29T04:18:47;17.70;99.90
18741;DHT22;9499;52.472;13.448;2023-07-29T04:21:18;17.70;99.90
18741;DHT22;9499;52.472;13.448;2023-07-29T04:23:47;17.70;99.90
18741;DHT22;9499;52.472;13.448;2023-07-29T04:26:22;17.80;99.90
18741;DHT22;9499;52.472;13.448;2023-07-29T04:28:50;17.80;99.90
18741;DHT22;9499;52.472;13.448;2023-07-29T04:31:19;17.80;99.90
18741;DHT22;9499;52.472;13.448;2023-07-29T04:33:48;17.90;99.90
18741;DHT22;9499;52.472;13.448;2023-07-29T04:36:17;17.90;99.90
18741;DHT22;9499;52.472;13.448;2023-07-29T04:38:44;17.90;99.90
18741;DHT22;9499;52.472;13.448;2023-07-29T04:41:11;18.00;99.90
18741;DHT22;9499;52.472;13.448;2023-07-29T04:43:41;18.00;99.90
18741;DHT22;9499;52.472;13.448;2023-07-29T04:46:13;18.00;99.90
18741;DHT22;9499;52.472;13.448;2023-07-29T04:48:41;18.10;99.90
18741;DHT22;9499;52.472;13.448;2023-07-29T04:51:24;18.10;99.90
18741;DHT22;9499;52.472;13.448;2023-07-29T04:53:51;18.00;99.90
18741;DHT22;9499;52.472;13.448;2023-07-29T04:56:18;18.10;99.90
18741;DHT22;9499;52.472;13.448;2023-07-29T04:58:47;18.10;99.90
18741;DHT22;9499;52.472;13.448;2023-07-29T05:01:17;18.20;99.90
18741;DHT22;9499;52.472;13.448;2023-07-29T05:03:43;18.20;99.90
18741;DHT22;9499;52.472;13.448;2023-07-29T05:06:11;18.30;99.90
18741;DHT22;9499;52.472;13.448;2023-07-29T05:08:41;18.40;99.90
18741;DHT22;9499;52.472;13.448;2023-07-29T05:11:11;18.40;99.90
18741;DHT22;9499;52.472;13.448;2023-07-29T05:13:39;18.40;99.90
18741;DHT22;9499;52.472;13.448;2023-07-29T05:16:09;18.50;99.90
18741;DHT22;9499;52.472;13.448;2023-07-29T05:18:37;18.50;99.90
18741;DHT22;9499;52.472;13.448;2023-07-29T05:21:05;18.50;99.90
18741;DHT22;9499;52.472;13.448;2023-07-29T05:23:32;18.50;99.90
18741;DHT22;9499;52.472;13.448;2023-07-29T05:25:59;18.50;99.90
18741;DHT22;9499;52.472;13.448;2023-07-29T05:28:25;18.50;99.90
18741;DHT22;9499;52.472;13.448;2023-07-29T05:30:52;18.60;99.90
18741;DHT22;9499;52.472;13.448;2023-07-29T05:33:20;18.70;99.90
18741;DHT22;9499;52.472;13.448;2023-07-29T05:35:49;18.70;99.90
18741;DHT22;9499;52.472;13.448;2023-07-29T05:38:25;18.80;99.90
18741;DHT22;9499;52.472;13.448;2023-07-29T05:40:52;18.80;99.90
18741;DHT22;9499;52.472;13.448;2023-07-29T05:43:19;18.80;99.90
18741;DHT22;9499;52.472;13.448;2023-07-29T05:45:46;18.90;99.90
18741;DHT22;9499;52.472;13.448;2023-07-29T05:48:13;18.90;99.90
18741;DHT22;9499;52.472;13.448;2023-07-29T05:50:40;18.90;99.90
18741;DHT22;9499;52.472;13.448;2023-07-29T05:53:09;19.00;99.90
18741;DHT22;9499;52.472;13.448;2023-07-29T05:55:38;19.10;99.90
18741;DHT22;9499;52.472;13.448;2023-07-29T05:58:06;19.10;99.90
18741;DHT22;9499;52.472;13.448;2023-07-29T06:00:35;19.10;99.90
18741;DHT22;9499;52.472;13.448;2023-07-29T06:03:01;19.20;99.90
18741;DHT22;9499;52.472;13.448;2023-07-29T06:05:33;19.20;99.90
18741;DHT22;9499;52.472;13.448;2023-07-29T06:08:00;19.20;99.90
18741;DHT22;9499;52.472;13.448;2023-07-29T06:10:28;19.30;99.90
18741;DHT22;9499;52.472;13.448;2023-07-29T06:12:54;19.30;99.90
18741;DHT22;9499;52.472;13.448;2023-07-29T06:15:21;19.40;99.90
18741;DHT22;9499;52.472;13.448;2023-07-29T06:17:48;19.50;99.90
18741;DHT22;9499;52.472;13.448;2023-07-29T06:20:15;19.50;99.90
18741;DHT22;9499;52.472;13.448;2023-07-29T06:22:42;19.50;99.90
18741;DHT22;9499;52.472;13.448;2023-07-29T06:25:09;19.60;99.90
18741;DHT22;9499;52.472;13.448;2023-07-29T06:27:37;19.60;99.90
18741;DHT22;9499;52.472;13.448;2023-07-29T06:30:05;19.60;99.90
18741;DHT22;9499;52.472;13.448;2023-07-29T06:32:34;19.70;99.90
18741;DHT22;9499;52.472;13.448;2023-07-29T06:35:01;19.80;99.90
18741;DHT22;9499;52.472;13.448;2023-07-29T06:37:28;20.00;99.90
18741;DHT22;9499;52.472;13.448;2023-07-29T06:39:55;20.00;99.90
18741;DHT22;9499;52.472;13.448;2023-07-29T06:42:21;20.20;99.90
18741;DHT22;9499;52.472;13.448;2023-07-29T06:44:51;20.20;99.90
18741;DHT22;9499;52.472;13.448;2023-07-29T06:47:18;20.30;99.90
18741;DHT22;9499;52.472;13.448;2023-07-29T06:49:47;20.30;99.90
18741;DHT22;9499;52.472;13.448;2023-07-29T06:52:14;20.30;99.90
18741;DHT22;9499;52.472;13.448;2023-07-29T06:54:40;20.40;99.90
18741;DHT22;9499;52.472;13.448;2023-07-29T06:57:07;20.50;99.90
18741;DHT22;9499;52.472;13.448;2023-07-29T06:59:33;20.50;99.90
18741;DHT22;9499;52.472;13.448;2023-07-29T07:02:16;20.60;99.90
18741;DHT22;9499;52.472;13.448;2023-07-29T07:04:43;20.60;99.90
18741;DHT22;9499;52.472;13.448;2023-07-29T07:07:09;20.70;99.90
18741;DHT22;9499;52.472;13.448;2023-07-29T07:09:38;20.90;99.90
18741;DHT22;9499;52.472;13.448;2023-07-29T07:12:05;21.00;99.90
18741;DHT22;9499;52.472;13.448;2023-07-29T07:14:31;21.00;99.90
18741;DHT22;9499;52.472;13.448;2023-07-29T07:17:00;21.10;99.90
18741;DHT22;9499;52.472;13.448;2023-07-29T07:19:33;21.10;99.90
18741;DHT22;9499;52.472;13.448;2023-07-29T07:22:00;21.10;99.90
18741;DHT22;9499;52.472;13.448;2023-07-29T07:24:34;21.10;99.90
18741;DHT22;9499;52.472;13.448;2023-07-29T07:27:01;21.10;99.90
18741;DHT22;9499;52.472;13.448;2023-07-29T07:29:28;21.20;99.90
18741;DHT22;9499;52.472;13.448;2023-07-29T07:31:56;21.30;99.90
18741;DHT22;9499;52.472;13.448;2023-07-29T07:34:24;21.30;99.90
18741;DHT22;9499;52.472;13.448;2023-07-29T07:36:53;21.40;99.90
18741;DHT22;9499;52.472;13.448;2023-07-29T07:39:22;21.50;99.90
18741;DHT22;9499;52.472;13.448;2023-07-29T07:41:51;21.60;99.90
18741;DHT22;9499;52.472;13.448;2023-07-29T07:44:20;21.60;99.90
18741;DHT22;9499;52.472;13.448;2023-07-29T07:46:47;21.70;99.90
18741;DHT22;9499;52.472;13.448;2023-07-29T07:49:15;21.80;99.90
18741;DHT22;9499;52.472;13.448;2023-07-29T07:51:45;21.80;99.90
18741;DHT22;9499;52.472;13.448;2023-07-29T07:54:14;21.80;99.90
18741;DHT22;9499;52.472;13.448;2023-07-29T07:56:41;21.80;99.90
18741;DHT22;9499;52.472;13.448;2023-07-29T07:59:10;21.90;99.90
18741;DHT22;9499;52.472;13.448;2023-07-29T08:01:37;22.00;99.90
18741;DHT22;9499;52.472;13.448;2023-07-29T08:04:05;22.00;99.90
18741;DHT22;9499;52.472;13.448;2023-07-29T08:06:35;22.00;99.90
18741;DHT22;9499;52.472;13.448;2023-07-29T08:09:04;22.10;99.90
18741;DHT22;9499;52.472;13.448;2023-07-29T08:11:32;22.10;99.90
18741;DHT22;9499;52.472;13.448;2023-07-29T08:13:59;22.10;99.90
18741;DHT22;9499;52.472;13.448;2023-07-29T08:16:26;22.10;99.90
18741;DHT22;9499;52.472;13.448;2023-07-29T08:18:52;22.20;99.90
18741;DHT22;9499;52.472;13.448;2023-07-29T08:21:21;22.20;99.90
18741;DHT22;9499;52.472;13.448;2023-07-29T08:23:48;22.40;99.90
18741;DHT22;9499;52.472;13.448;2023-07-29T08:26:15;22.40;99.90
18741;DHT22;9499;52.472;13.448;2023-07-29T08:28:44;22.50;99.90
18741;DHT22;9499;52.472;13.448;2023-07-29T08:31:11;22.60;99.90
18741;DHT22;9499;52.472;13.448;2023-07-29T08:33:40;22.70;99.90
18741;DHT22;9499;52.472;13.448;2023-07-29T08:36:06;22.70;99.90
18741;DHT22;9499;52.472;13.448;2023-07-29T08:38:48;22.80;99.90
18741;DHT22;9499;52.472;13.448;2023-07-29T08:41:21;22.90;99.90
18741;DHT22;9499;52.472;13.448;2023-07-29T08:44:06;22.90;99.90
18741;DHT22;9499;52.472;13.448;2023-07-29T08:46:36;23.00;99.90
18741;DHT22;9499;52.472;13.448;2023-07-29T08:49:03;22.90;99.90
18741;DHT22;9499;52.472;13.448;2023-07-29T08:51:32;22.90;99.90
18741;DHT22;9499;52.472;13.448;2023-07-29T08:54:00;22.90;99.90
18741;DHT22;9499;52.472;13.448;2023-07-29T08:56:28;23.00;99.90
18741;DHT22;9499;52.472;13.448;2023-07-29T08:58:57;23.00;99.90
18741;DHT22;9499;52.472;13.448;2023-07-29T09:01:26;23.10;1.00
18741;DHT22;9499;52.472;13.448;2023-07-29T09:03:52;23.20;1.00
18741;DHT22;9499;52.472;13.448;2023-07-29T09:06:19;23.30;1.00
18741;DHT22;9499;52.472;13.448;2023-07-29T09:08:48;23.40;1.00
18741;DHT22;9499;52.472;13.448;2023-07-29T09:11:15;23.40;1.00
18741;DHT22;9499;52.472;13.448;2023-07-29T09:13:43;23.50;1.00
18741;DHT22;9499;52.472;13.448;2023-07-29T09:16:12;23.60;99.90
18741;DHT22;9499;52.472;13.448;2023-07-29T09:18:41;23.60;99.90
18741;DHT22;9499;52.472;13.448;2023-07-29T09:21:09;23.60;99.90
18741;DHT22;9499;52.472;13.448;2023-07-29T09:23:39;23.60;1.00
18741;DHT22;9499;52.472;13.448;2023-07-29T09:26:07;23.60;99.90
18741;DHT22;9499;52.472;13.448;2023-07-29T09:28:34;23.60;99.90
18741;DHT22;9499;52.472;13.448;2023-07-29T09:31:19;23.50;99.90
18741;DHT22;9499;52.472;13.448;2023-07-29T09:33:46;23.50;1.00
18741;DHT22;9499;52.472;13.448;2023-07-29T09:36:14;23.60;1.00
18741;DHT22;9499;52.472;13.448;2023-07-29T09:38:41;23.70;1.00
18741;DHT22;9499;52.472;13.448;2023-07-29T09:41:08;23.80;99.90
18741;DHT22;9499;52.472;13.448;2023-07-29T09:43:40;23.90;99.90
18741;DHT22;9499;52.472;13.448;2023-07-29T09:46:08;23.90;99.90
18741;DHT22;9499;52.472;13.448;2023-07-29T09:48:41;23.90;99.90
18741;DHT22;9499;52.472;13.448;2023-07-29T09:51:11;23.90;99.90
18741;DHT22;9499;52.472;13.448;2023-07-29T09:53:42;23.80;99.90
18741;DHT22;9499;52.472;13.448;2023-07-29T09:56:10;23.80;99.90
18741;DHT22;9499;52.472;13.448;2023-07-29T09:58:39;23.90;99.90
18741;DHT22;9499;52.472;13.448;2023-07-29T10:01:06;24.00;1.00
18741;DHT22;9499;52.472;13.448;2023-07-29T10:03:33;24.10;99.90
18741;DHT22;9499;52.472;13.448;2023-07-29T10:06:02;24.20;99.90
18741;DHT22;9499;52.472;13.448;2023-07-29T10:08:29;24.30;1.00
18741;DHT22;9499;52.472;13.448;2023-07-29T10:10:58;24.50;1.00
18741;DHT22;9499;52.472;13.448;2023-07-29T10:13:26;24.60;1.00
18741;DHT22;9499;52.472;13.448;2023-07-29T10:15:54;24.70;1.00
18741;DHT22;9499;52.472;13.448;2023-07-29T10:18:22;24.80;1.00
18741;DHT22;9499;52.472;13.448;2023-07-29T10:20:51;24.80;99.90
18741;DHT22;9499;52.472;13.448;2023-07-29T10:23:21;24.80;99.90
18741;DHT22;9499;52.472;13.448;2023-07-29T10:25:54;24.70;99.90
18741;DHT22;9499;52.472;13.448;2023-07-29T10:28:23;24.70;9.10
18741;DHT22;9499;52.472;13.448;2023-07-29T10:30:52;24.70;99.90
18741;DHT22;9499;52.472;13.448;2023-07-29T10:33:18;24.70;1.00
18741;DHT22;9499;52.472;13.448;2023-07-29T10:35:49;24.70;99.90
18741;DHT22;9499;52.472;13.448;2023-07-29T10:38:16;24.70;99.90
18741;DHT22;9499;52.472;13.448;2023-07-29T10:40:46;24.70;1.00
18741;DHT22;9499;52.472;13.448;2023-07-29T10:43:20;24.70;99.90
18741;DHT22;9499;52.472;13.448;2023-07-29T10:45:50;24.70;99.90
18741;DHT22;9499;52.472;13.448;2023-07-29T10:48:42;24.70;1.00
18741;DHT22;9499;52.472;13.448;2023-07-29T10:51:26;24.60;1.00
18741;DHT22;9499;52.472;13.448;2023-07-29T10:53:56;24.70;1.00
18741;DHT22;9499;52.472;13.448;2023-07-29T10:56:31;24.80;1.00
18741;DHT22;9499;52.472;13.448;2023-07-29T10:59:31;24.90;1.00
18741;DHT22;9499;52.472;13.448;2023-07-29T11:01:59;25.10;99.90
18741;DHT22;9499;52.472;13.448;2023-07-29T11:04:27;25.00;99.90
18741;DHT22;9499;52.472;13.448;2023-07-29T11:09:53;24.80;99.90
18741;DHT22;9499;52.472;13.448;2023-07-29T11:12:43;24.80;1.00
18741;DHT22;9499;52.472;13.448;2023-07-29T11:15:16;24.60;1.00
18741;DHT22;9499;52.472;13.448;2023-07-29T11:17:46;24.60;1.00
18741;DHT22;9499;52.472;13.448;2023-07-29T11:20:16;24.50;1.00
18741;DHT22;9499;52.472;13.448;2023-07-29T11:22:43;24.50;99.90
18741;DHT22;9499;52.472;13.448;2023-07-29T11:25:11;23.70;1.00
18741;DHT22;9499;52.472;13.448;2023-07-29T11:27:39;21.70;99.90
18741;DHT22;9499;52.472;13.448;2023-07-29T11:30:09;20.80;99.90
18741;DHT22;9499;52.472;13.448;2023-07-29T11:32:37;20.20;99.90
18741;DHT22;9499;52.472;13.448;2023-07-29T11:35:05;20.00;99.90
18741;DHT22;9499;52.472;13.448;2023-07-29T11:37:33;19.80;99.90
18741;DHT22;9499;52.472;13.448;2023-07-29T11:40:00;19.90;99.90
18741;DHT22;9499;52.472;13.448;2023-07-29T11:42:27;19.90;99.90
18741;DHT22;9499;52.472;13.448;2023-07-29T11:44:57;19.80;99.90
18741;DHT22;9499;52.472;13.448;2023-07-29T11:47:24;19.90;99.90
18741;DHT22;9499;52.472;13.448;2023-07-29T11:49:51;20.00;99.90
18741;DHT22;9499;52.472;13.448;2023-07-29T11:52:18;20.00;99.90
18741;DHT22;9499;52.472;13.448;2023-07-29T11:54:47;20.10;99.90
18741;DHT22;9499;52.472;13.448;2023-07-29T11:57:14;20.10;99.90
18741;DHT22;9499;52.472;13.448;2023-07-29T11:59:41;20.20;99.90
18741;DHT22;9499;52.472;13.448;2023-07-29T12:02:12;20.20;99.90
18741;DHT22;9499;52.472;13.448;2023-07-29T12:04:40;20.30;99.90
18741;DHT22;9499;52.472;13.448;2023-07-29T12:07:08;20.30;99.90
18741;DHT22;9499;52.472;13.448;2023-07-29T12:09:35;20.40;99.90
18741;DHT22;9499;52.472;13.448;2023-07-29T12:12:02;20.40;99.90
18741;DHT22;9499;52.472;13.448;2023-07-29T12:14:31;20.40;99.90
18741;DHT22;9499;52.472;13.448;2023-07-29T12:17:00;20.50;99.90
18741;DHT22;9499;52.472;13.448;2023-07-29T12:19:32;20.50;99.90
18741;DHT22;9499;52.472;13.448;2023-07-29T12:22:00;20.50;99.90
18741;DHT22;9499;52.472;13.448;2023-07-29T12:24:27;20.50;99.90
18741;DHT22;9499;52.472;13.448;2023-07-29T12:26:56;20.50;99.90
18741;DHT22;9499;52.472;13.448;2023-07-29T12:29:23;20.60;99.90
18741;DHT22;9499;52.472;13.448;2023-07-29T12:31:57;20.60;99.90
18741;DHT22;9499;52.472;13.448;2023-07-29T12:34:25;20.50;99.90
18741;DHT22;9499;52.472;13.448;2023-07-29T12:36:53;20.60;99.90
18741;DHT22;9499;52.472;13.448;2023-07-29T12:39:22;20.60;99.90
18741;DHT22;9499;52.472;13.448;2023-07-29T12:41:53;20.70;99.90
18741;DHT22;9499;52.472;13.448;2023-07-29T12:44:23;20.80;99.90
18741;DHT22;9499;52.472;13.448;2023-07-29T12:46:50;20.90;99.90
18741;DHT22;9499;52.472;13.448;2023-07-29T12:49:19;21.00;99.90
18741;DHT22;9499;52.472;13.448;2023-07-29T12:51:46;21.10;99.90
18741;DHT22;9499;52.472;13.448;2023-07-29T12:54:14;21.30;99.90
18741;DHT22;9499;52.472;13.448;2023-07-29T12:56:41;21.50;99.90
18741;DHT22;9499;52.472;13.448;2023-07-29T12:59:08;21.80;99.90
18741;DHT22;9499;52.472;13.448;2023-07-29T13:01:37;22.10;99.90
18741;DHT22;9499;52.472;13.448;2023-07-29T13:04:04;22.40;99.90
18741;DHT22;9499;52.472;13.448;2023-07-29T13:06:31;22.50;99.90
18741;DHT22;9499;52.472;13.448;2023-07-29T13:08:57;22.50;99.90
18741;DHT22;9499;52.472;13.448;2023-07-29T13:11:25;22.60;99.90
18741;DHT22;9499;52.472;13.448;2023-07-29T13:13:52;22.60;99.90
18741;DHT22;9499;52.472;13.448;2023-07-29T13:16:18;22.50;99.90
18741;DHT22;9499;52.472;13.448;2023-07-29T13:18:47;22.40;99.90
18741;DHT22;9499;52.472;13.448;2023-07-29T13:21:15;22.50;99.90
18741;DHT22;9499;52.472;13.448;2023-07-29T13:23:42;22.30;99.90
18741;DHT22;9499;52.472;13.448;2023-07-29T13:26:08;22.30;99.90
18741;DHT22;9499;52.472;13.448;2023-07-29T13:28:37;22.20;99.90
18741;DHT22;9499;52.472;13.448;2023-07-29T13:31:04;22.20;99.90
18741;DHT22;9499;52.472;13.448;2023-07-29T13:33:31;22.20;99.90
18741;DHT22;9499;52.472;13.448;2023-07-29T13:35:59;22.20;99.90
18741;DHT22;9499;52.472;13.448;2023-07-29T13:38:26;22.30;99.90
18741;DHT22;9499;52.472;13.448;2023-07-29T13:40:52;22.50;99.90
18741;DHT22;9499;52.472;13.448;2023-07-29T13:43:18;22.90;99.90
18741;DHT22;9499;52.472;13.448;2023-07-29T13:45:47;23.40;99.90
18741;DHT22;9499;52.472;13.448;2023-07-29T13:48:15;23.70;99.90
18741;DHT22;9499;52.472;13.448;2023-07-29T13:50:42;23.80;99.90
18741;DHT22;9499;52.472;13.448;2023-07-29T13:53:09;23.80;99.90
18741;DHT22;9499;52.472;13.448;2023-07-29T13:55:39;23.60;99.90
18741;DHT22;9499;52.472;13.448;2023-07-29T13:58:06;23.60;99.90
18741;DHT22;9499;52.472;13.448;2023-07-29T14:00:34;23.80;99.90
18741;DHT22;9499;52.472;13.448;2023-07-29T14:03:02;24.10;99.90
18741;DHT22;9499;52.472;13.448;2023-07-29T14:05:29;24.20;99.90
18741;DHT22;9499;52.472;13.448;2023-07-29T14:07:55;24.20;99.90
18741;DHT22;9499;52.472;13.448;2023-07-29T14:10:22;24.20;99.90
18741;DHT22;9499;52.472;13.448;2023-07-29T14:12:49;24.00;41.90
18741;DHT22;9499;52.472;13.448;2023-07-29T14:15:16;23.90;27.10
18741;DHT22;9499;52.472;13.448;2023-07-29T14:17:42;23.90;11.10
18741;DHT22;9499;52.472;13.448;2023-07-29T14:20:11;24.10;10.50
18741;DHT22;9499;52.472;13.448;2023-07-29T14:22:38;24.20;1.00
18741;DHT22;9499;52.472;13.448;2023-07-29T14:25:05;24.10;1.00
18741;DHT22;9499;52.472;13.448;2023-07-29T14:27:32;24.10;1.00
18741;DHT22;9499;52.472;13.448;2023-07-29T14:29:59;24.10;1.00
18741;DHT22;9499;52.472;13.448;2023-07-29T14:32:25;24.30;1.00
18741;DHT22;9499;52.472;13.448;2023-07-29T14:34:52;24.40;1.00
18741;DHT22;9499;52.472;13.448;2023-07-29T14:37:20;24.60;1.00
18741;DHT22;9499;52.472;13.448;2023-07-29T14:39:46;24.70;1.00
18741;DHT22;9499;52.472;13.448;2023-07-29T14:42:13;24.80;1.00
18741;DHT22;9499;52.472;13.448;2023-07-29T14:44:40;25.00;1.00
18741;DHT22;9499;52.472;13.448;2023-07-29T14:47:08;24.90;1.00
18741;DHT22;9499;52.472;13.448;2023-07-29T14:49:34;24.70;1.00
18741;DHT22;9499;52.472;13.448;2023-07-29T14:52:01;24.60;1.00
18741;DHT22;9499;52.472;13.448;2023-07-29T14:54:28;24.50;1.00
18741;DHT22;9499;52.472;13.448;2023-07-29T14:56:55;24.50;1.00
18741;DHT22;9499;52.472;13.448;2023-07-29T14:59:22;24.50;1.00
18741;DHT22;9499;52.472;13.448;2023-07-29T15:01:49;24.40;1.00
18741;DHT22;9499;52.472;13.448;2023-07-29T15:04:15;24.30;1.00
18741;DHT22;9499;52.472;13.448;2023-07-29T15:06:42;24.20;1.00
18741;DHT22;9499;52.472;13.448;2023-07-29T15:09:09;24.10;1.00
18741;DHT22;9499;52.472;13.448;2023-07-29T15:11:37;24.00;1.00
18741;DHT22;9499;52.472;13.448;2023-07-29T15:14:03;23.90;1.00
18741;DHT22;9499;52.472;13.448;2023-07-29T15:16:30;23.80;1.00
18741;DHT22;9499;52.472;13.448;2023-07-29T15:18:57;23.80;1.00
18741;DHT22;9499;52.472;13.448;2023-07-29T15:21:24;23.70;1.00
18741;DHT22;9499;52.472;13.448;2023-07-29T15:23:50;23.60;1.00
18741;DHT22;9499;52.472;13.448;2023-07-29T15:26:17;23.50;1.00
18741;DHT22;9499;52.472;13.448;2023-07-29T15:28:45;23.50;1.00
18741;DHT22;9499;52.472;13.448;2023-07-29T15:31:13;23.50;1.00
18741;DHT22;9499;52.472;13.448;2023-07-29T15:33:39;23.40;1.00
18741;DHT22;9499;52.472;13.448;2023-07-29T15:36:06;23.40;12.70
18741;DHT22;9499;52.472;13.448;2023-07-29T15:38:32;23.40;24.30
18741;DHT22;9499;52.472;13.448;2023-07-29T15:41:00;23.30;26.60
18741;DHT22;9499;52.472;13.448;2023-07-29T15:43:27;23.10;1.00
18741;DHT22;9499;52.472;13.448;2023-07-29T15:45:55;22.30;1.00